sensor_id;sensor_type;location;lat;lon;timestamp;pressure;altitude;pressure_sealevel;temperature;humidity
78313;BME280;67568;47.438;21.408;2023-03-01T00:01:22;101660.75;;;4.17;64.50
78313;BME280;67568;47.438;21.408;2023-03-01T00:03:52;101660.28;;;4.20;64.61
78313;BME280;67568;47.438;21.408;2023-03-01T00:06:19;101659.47;;;4.20;64.70
78313;BME280;67568;47.438;21.408;2023-03-01T00:08:47;101657.19;;;4.17;64.33
78313;BME280;67568;47.438;21.408;2023-03-01T00:11:29;101651.59;;;4.23;64.62
78313;BME280;67568;47.438;21.408;2023-03-01T00:14:13;101658.63;;;4.19;63.94
78313;BME280;67568;47.438;21.408;2023-03-01T00:16:45;101651.06;;;4.15;64.09
78313;BME280;67568;47.438;21.408;2023-03-01T00:19:16;101649.41;;;4.14;63.45
78313;BME280;67568;47.438;21.408;2023-03-01T00:21:43;101642.00;;;4.14;63.49
78313;BME280;67568;47.438;21.408;2023-03-01T00:24:19;101642.16;;;4.19;63.41
78313;BME280;67568;47.438;21.408;2023-03-01T00:26:46;101644.66;;;4.21;63.26
78313;BME280;67568;47.438;21.408;2023-03-01T00:29:15;101629.75;;;4.17;63.09
78313;BME280;67568;47.438;21.408;2023-03-01T00:31:42;101639.88;;;4.16;63.14
78313;BME280;67568;47.438;21.408;2023-03-01T00:34:09;101633.69;;;4.21;62.92
78313;BME280;67568;47.438;21.408;2023-03-01T00:36:36;101626.69;;;4.25;62.82
78313;BME280;67568;47.438;21.408;2023-03-01T00:39:10;101633.25;;;4.24;62.87
78313;BME280;67568;47.438;21.408;2023-03-01T00:41:38;101633.03;;;4.25;62.45
78313;BME280;67568;47.438;21.408;2023-03-01T00:44:04;101632.81;;;4.27;62.57
78313;BME280;67568;47.438;21.408;2023-03-01T00:46:31;101625.16;;;4.29;63.31
78313;BME280;67568;47.438;21.408;2023-03-01T00:48:59;101631.41;;;4.18;62.78
78313;BME280;67568;47.438;21.408;2023-03-01T00:51:29;101624.00;;;4.18;63.53
78313;BME280;67568;47.438;21.408;2023-03-01T00:53:58;101631.56;;;4.23;62.92
78313;BME280;67568;47.438;21.408;2023-03-01T00:56:25;101631.34;;;4.24;63.01
78313;BME280;67568;47.438;21.408;2023-03-01T00:58:52;101629.00;;;4.28;63.48
78313;BME280;67568;47.438;21.408;2023-03-01T01:01:21;101633.19;;;4.31;63.03
78313;BME280;67568;47.438;21.408;2023-03-01T01:03:53;101634.47;;;4.28;63.38
78313;BME280;67568;47.438;21.408;2023-03-01T01:06:23;101634.31;;;4.23;63.62
78313;BME280;67568;47.438;21.408;2023-03-01T01:08:51;101631.28;;;4.13;63.48
78313;BME280;67568;47.438;21.408;2023-03-01T01:11:22;101631.03;;;4.14;64.10
78313;BME280;67568;47.438;21.408;2023-03-01T01:13:50;101624.94;;;4.12;63.28
78313;BME280;67568;47.438;21.408;2023-03-01T01:16:21;101627.84;;;4.17;63.83
78313;BME280;67568;47.438;21.408;2023-03-01T01:18:48;101625.34;;;4.16;63.65
78313;BME280;67568;47.438;21.408;2023-03-01T01:21:18;101621.59;;;4.10;63.52
78313;BME280;67568;47.438;21.408;2023-03-01T01:23:48;101630.22;;;4.14;63.43
78313;BME280;67568;47.438;21.408;2023-03-01T01:26:26;101627.16;;;4.22;63.07
78313;BME280;67568;47.438;21.408;2023-03-01T01:28:57;101626.53;;;4.20;63.63
78313;BME280;67568;47.438;21.408;2023-03-01T01:31:25;101621.28;;;4.18;63.28
78313;BME280;67568;47.438;21.408;2023-03-01T01:33:57;101617.25;;;4.21;62.79
78313;BME280;67568;47.438;21.408;2023-03-01T01:36:28;101606.59;;;4.13;63.38
78313;BME280;67568;47.438;21.408;2023-03-01T01:38:55;101603.00;;;4.12;62.90
78313;BME280;67568;47.438;21.408;2023-03-01T01:41:23;101600.88;;;4.14;63.81
78313;BME280;67568;47.438;21.408;2023-03-01T01:46:39;101598.41;;;4.06;64.03
78313;BME280;67568;47.438;21.408;2023-03-01T01:51:42;101601.84;;;4.20;63.65
78313;BME280;67568;47.438;21.408;2023-03-01T01:54:32;101595.06;;;4.04;63.98
78313;BME280;67568;47.438;21.408;2023-03-01T01:57:07;101598.22;;;4.08;63.37
78313;BME280;67568;47.438;21.408;2023-03-01T01:59:36;101591.31;;;3.98;63.64
78313;BME280;67568;47.438;21.408;2023-03-01T02:02:03;101585.56;;;3.88;63.66
78313;BME280;67568;47.438;21.408;2023-03-01T02:04:32;101587.00;;;3.91;63.46
78313;BME280;67568;47.438;21.408;2023-03-01T02:07:07;101569.22;;;3.75;63.61
78313;BME280;67568;47.438;21.408;2023-03-01T02:09:35;101573.34;;;3.84;63.50
78313;BME280;67568;47.438;21.408;2023-03-01T02:12:03;101572.91;;;3.87;63.63
78313;BME280;67568;47.438;21.408;2023-03-01T02:14:30;101559.59;;;3.91;63.03
78313;BME280;67568;47.438;21.408;2023-03-01T02:16:57;101560.09;;;3.81;63.42
78313;BME280;67568;47.438;21.408;2023-03-01T02:19:42;101550.50;;;3.72;62.71
78313;BME280;67568;47.438;21.408;2023-03-01T02:22:27;101554.47;;;3.76;62.91
78313;BME280;67568;47.438;21.408;2023-03-01T02:30:27;101549.28;;;3.68;63.64
78313;BME280;67568;47.438;21.408;2023-03-01T02:32:56;101546.94;;;3.71;62.77
78313;BME280;67568;47.438;21.408;2023-03-01T02:35:25;101552.09;;;3.61;63.40
78313;BME280;67568;47.438;21.408;2023-03-01T02:37:54;101556.72;;;3.60;63.02
78313;BME280;67568;47.438;21.408;2023-03-01T02:40:21;101551.25;;;3.60;62.71
78313;BME280;67568;47.438;21.408;2023-03-01T02:42:56;101554.44;;;3.57;62.98
78313;BME280;67568;47.438;21.408;2023-03-01T02:45:24;101558.44;;;3.62;62.47
78313;BME280;67568;47.438;21.408;2023-03-01T02:47:54;101555.19;;;3.46;62.60
78313;BME280;67568;47.438;21.408;2023-03-01T02:56:01;101566.69;;;3.55;62.99
78313;BME280;67568;47.438;21.408;2023-03-01T02:58:28;101566.13;;;3.46;62.29
78313;BME280;67568;47.438;21.408;2023-03-01T03:00:58;101556.25;;;3.45;62.69
78313;BME280;67568;47.438;21.408;2023-03-01T03:03:28;101559.38;;;3.49;63.06
78313;BME280;67568;47.438;21.408;2023-03-01T03:05:54;101563.94;;;3.55;63.11
78313;BME280;67568;47.438;21.408;2023-03-01T03:08:21;101564.78;;;3.55;62.89
78313;BME280;67568;47.438;21.408;2023-03-01T03:10:48;101566.06;;;3.53;63.52
78313;BME280;67568;47.438;21.408;2023-03-01T03:13:15;101556.25;;;3.45;63.10
78313;BME280;67568;47.438;21.408;2023-03-01T03:15:42;101557.47;;;3.49;62.69
78313;BME280;67568;47.438;21.408;2023-03-01T03:18:11;101550.09;;;3.50;63.10
78313;BME280;67568;47.438;21.408;2023-03-01T03:20:40;101549.22;;;3.56;63.11
78313;BME280;67568;47.438;21.408;2023-03-01T03:23:08;101541.19;;;3.54;63.39
78313;BME280;67568;47.438;21.408;2023-03-01T03:25:34;101546.69;;;3.54;63.37
78313;BME280;67568;47.438;21.408;2023-03-01T03:28:02;101538.63;;;3.59;62.79
78313;BME280;67568;47.438;21.408;2023-03-01T03:30:31;101536.34;;;3.56;63.23
78313;BME280;67568;47.438;21.408;2023-03-01T03:32:58;101538.75;;;3.46;62.34
78313;BME280;67568;47.438;21.408;2023-03-01T03:35:26;101541.19;;;3.54;63.25
78313;BME280;67568;47.438;21.408;2023-03-01T03:37:53;101539.28;;;3.55;62.39
78313;BME280;67568;47.438;21.408;2023-03-01T03:40:20;101542.47;;;3.52;62.55
78313;BME280;67568;47.438;21.408;2023-03-01T03:42:46;101535.72;;;3.54;62.70
78313;BME280;67568;47.438;21.408;2023-03-01T03:45:14;101532.06;;;3.42;63.38
78313;BME280;67568;47.438;21.408;2023-03-01T03:47:41;101540.19;;;3.30;63.34
78313;BME280;67568;47.438;21.408;2023-03-01T03:50:14;101538.44;;;3.36;62.82
78313;BME280;67568;47.438;21.408;2023-03-01T03:52:42;101533.16;;;3.34;62.60
78313;BME280;67568;47.438;21.408;2023-03-01T03:55:12;101536.19;;;3.26;63.10
78313;BME280;67568;47.438;21.408;2023-03-01T03:57:42;101530.94;;;3.25;62.71
78313;BME280;67568;47.438;21.408;2023-03-01T04:00:11;101524.69;;;3.18;62.83
78313;BME280;67568;47.438;21.408;2023-03-01T04:02:40;101518.75;;;3.21;62.65
78313;BME280;67568;47.438;21.408;2023-03-01T04:05:08;101525.50;;;3.18;62.52
78313;BME280;67568;47.438;21.408;2023-03-01T04:07:36;101525.13;;;3.14;62.88
78313;BME280;67568;47.438;21.408;2023-03-01T04:10:04;101528.78;;;3.08;63.75
78313;BME280;67568;47.438;21.408;2023-03-01T04:12:31;101525.91;;;2.97;63.85
78313;BME280;67568;47.438;21.408;2023-03-01T04:14:57;101522.75;;;2.93;63.39
78313;BME280;67568;47.438;21.408;2023-03-01T04:17:24;101518.19;;;2.87;62.96
78313;BME280;67568;47.438;21.408;2023-03-01T04:19:50;101527.91;;;2.83;63.68
78313;BME280;67568;47.438;21.408;2023-03-01T04:22:20;101519.81;;;2.95;64.13
78313;BME280;67568;47.438;21.408;2023-03-01T04:24:48;101525.34;;;2.88;64.09
78313;BME280;67568;47.438;21.408;2023-03-01T04:27:14;101519.25;;;2.86;64.11
78313;BME280;67568;47.438;21.408;2023-03-01T04:29:41;101517.19;;;2.81;63.76
78313;BME280;67568;47.438;21.408;2023-03-01T04:32:08;101512.25;;;2.90;63.07
78313;BME280;67568;47.438;21.408;2023-03-01T04:34:34;101514.28;;;2.76;63.39
78313;BME280;67568;47.438;21.408;2023-03-01T04:37:01;101512.38;;;2.77;63.51
78313;BME280;67568;47.438;21.408;2023-03-01T04:39:31;101517.88;;;2.70;63.41
78313;BME280;67568;47.438;21.408;2023-03-01T04:41:58;101522.91;;;2.73;63.95
78313;BME280;67568;47.438;21.408;2023-03-01T04:44:26;101530.47;;;2.78;63.81
78313;BME280;67568;47.438;21.408;2023-03-01T04:46:53;101530.91;;;2.75;64.22
78313;BME280;67568;47.438;21.408;2023-03-01T04:49:20;101533.91;;;2.66;63.85
78313;BME280;67568;47.438;21.408;2023-03-01T04:51:46;101533.91;;;2.66;63.99
78313;BME280;67568;47.438;21.408;2023-03-01T04:54:13;101537.72;;;2.65;63.14
78313;BME280;67568;47.438;21.408;2023-03-01T04:56:39;101539.03;;;2.56;64.29
78313;BME280;67568;47.438;21.408;2023-03-01T04:59:06;101533.56;;;2.56;64.63
78313;BME280;67568;47.438;21.408;2023-03-01T05:01:34;101534.78;;;2.60;65.15
78313;BME280;67568;47.438;21.408;2023-03-01T05:04:00;101536.03;;;2.64;63.92
78313;BME280;67568;47.438;21.408;2023-03-01T05:06:27;101534.75;;;2.67;63.68
78313;BME280;67568;47.438;21.408;2023-03-01T05:08:54;101535.44;;;2.56;64.90
78313;BME280;67568;47.438;21.408;2023-03-01T05:11:21;101539.81;;;2.63;65.03
78313;BME280;67568;47.438;21.408;2023-03-01T05:13:48;101542.81;;;2.62;65.52
78313;BME280;67568;47.438;21.408;2023-03-01T05:16:14;101537.41;;;2.48;65.22
78313;BME280;67568;47.438;21.408;2023-03-01T05:18:41;101535.69;;;2.54;65.50
78313;BME280;67568;47.438;21.408;2023-03-01T05:21:13;101531.88;;;2.55;64.44
78313;BME280;67568;47.438;21.408;2023-03-01T05:23:40;101543.66;;;2.56;64.96
78313;BME280;67568;47.438;21.408;2023-03-01T05:26:07;101537.75;;;2.59;64.75
78313;BME280;67568;47.438;21.408;2023-03-01T05:28:52;101533.09;;;2.66;64.79
78313;BME280;67568;47.438;21.408;2023-03-01T05:31:19;101536.69;;;2.60;64.90
78313;BME280;67568;47.438;21.408;2023-03-01T05:33:45;101547.19;;;2.63;65.17
78313;BME280;67568;47.438;21.408;2023-03-01T05:36:12;101538.09;;;2.69;64.35
78313;BME280;67568;47.438;21.408;2023-03-01T05:38:39;101543.53;;;2.76;64.40
78313;BME280;67568;47.438;21.408;2023-03-01T05:41:14;101540.44;;;2.65;64.99
78313;BME280;67568;47.438;21.408;2023-03-01T05:43:40;101543.78;;;2.67;64.06
78313;BME280;67568;47.438;21.408;2023-03-01T05:46:07;101551.84;;;2.62;64.46
78313;BME280;67568;47.438;21.408;2023-03-01T05:48:33;101548.44;;;2.67;64.25
78313;BME280;67568;47.438;21.408;2023-03-01T05:51:01;101554.13;;;2.65;64.65
78313;BME280;67568;47.438;21.408;2023-03-01T05:53:28;101539.03;;;2.56;63.80
78313;BME280;67568;47.438;21.408;2023-03-01T05:55:55;101556.63;;;2.67;64.96
78313;BME280;67568;47.438;21.408;2023-03-01T05:58:21;101556.19;;;2.70;63.87
78313;BME280;67568;47.438;21.408;2023-03-01T06:00:49;101554.47;;;2.76;63.97
78313;BME280;67568;47.438;21.408;2023-03-01T06:03:19;101550.25;;;2.80;63.75
78313;BME280;67568;47.438;21.408;2023-03-01T06:05:45;101557.00;;;2.77;63.19
78313;BME280;67568;47.438;21.408;2023-03-01T06:08:13;101554.22;;;2.84;63.58
78313;BME280;67568;47.438;21.408;2023-03-01T06:10:40;101551.66;;;2.89;63.86
78313;BME280;67568;47.438;21.408;2023-03-01T06:13:07;101559.41;;;2.92;63.74
78313;BME280;67568;47.438;21.408;2023-03-01T06:15:33;101549.94;;;2.95;62.84
78313;BME280;67568;47.438;21.408;2023-03-01T06:18:00;101558.94;;;3.02;62.94
78313;BME280;67568;47.438;21.408;2023-03-01T06:20:28;101557.63;;;3.04;62.54
78313;BME280;67568;47.438;21.408;2023-03-01T06:22:55;101546.53;;;2.99;63.58
78313;BME280;67568;47.438;21.408;2023-03-01T06:25:24;101548.97;;;3.07;62.54
78313;BME280;67568;47.438;21.408;2023-03-01T06:27:52;101551.94;;;3.06;62.75
78313;BME280;67568;47.438;21.408;2023-03-01T06:30:20;101561.19;;;3.11;63.38
78313;BME280;67568;47.438;21.408;2023-03-01T06:32:48;101557.34;;;3.19;62.79
78313;BME280;67568;47.438;21.408;2023-03-01T06:35:18;101552.50;;;3.14;63.18
78313;BME280;67568;47.438;21.408;2023-03-01T06:37:46;101556.66;;;3.24;63.18
78313;BME280;67568;47.438;21.408;2023-03-01T06:40:13;101553.72;;;3.19;63.59
78313;BME280;67568;47.438;21.408;2023-03-01T06:42:42;101560.63;;;3.28;62.88
78313;BME280;67568;47.438;21.408;2023-03-01T06:45:10;101558.22;;;3.38;62.51
78313;BME280;67568;47.438;21.408;2023-03-01T06:47:38;101571.78;;;3.51;62.90
78313;BME280;67568;47.438;21.408;2023-03-01T06:50:05;101564.75;;;3.62;61.58
78313;BME280;67568;47.438;21.408;2023-03-01T06:52:32;101574.00;;;3.61;61.67
78313;BME280;67568;47.438;21.408;2023-03-01T06:54:59;101566.03;;;3.59;61.81
78313;BME280;67568;47.438;21.408;2023-03-01T06:57:26;101565.66;;;3.56;62.24
78313;BME280;67568;47.438;21.408;2023-03-01T06:59:53;101557.63;;;3.54;61.85
78313;BME280;67568;47.438;21.408;2023-03-01T07:02:20;101558.16;;;3.45;62.09
78313;BME280;67568;47.438;21.408;2023-03-01T07:04:49;101561.53;;;3.65;62.60
78313;BME280;67568;47.438;21.408;2023-03-01T07:07:16;101562.84;;;3.81;62.34
78313;BME280;67568;47.438;21.408;2023-03-01T07:09:44;101561.50;;;3.90;62.22
78313;BME280;67568;47.438;21.408;2023-03-01T07:12:11;101565.88;;;4.10;62.18
78313;BME280;67568;47.438;21.408;2023-03-01T07:14:38;101563.63;;;4.25;61.58
78313;BME280;67568;47.438;21.408;2023-03-01T07:17:04;101573.63;;;4.49;61.39
78313;BME280;67568;47.438;21.408;2023-03-01T07:19:34;101560.50;;;4.51;61.30
78313;BME280;67568;47.438;21.408;2023-03-01T07:22:01;101561.50;;;4.57;60.05
78313;BME280;67568;47.438;21.408;2023-03-01T07:24:27;101561.13;;;4.35;60.06
78313;BME280;67568;47.438;21.408;2023-03-01T07:26:54;101560.16;;;4.48;59.64
78313;BME280;67568;47.438;21.408;2023-03-01T07:29:20;101563.41;;;4.57;59.57
78313;BME280;67568;47.438;21.408;2023-03-01T07:31:47;101555.47;;;4.67;60.50
78313;BME280;67568;47.438;21.408;2023-03-01T07:34:15;101553.69;;;4.72;59.04
78313;BME280;67568;47.438;21.408;2023-03-01T07:36:42;101554.66;;;4.78;59.51
78313;BME280;67568;47.438;21.408;2023-03-01T07:39:10;101554.47;;;5.03;59.31
78313;BME280;67568;47.438;21.408;2023-03-01T07:41:37;101553.19;;;5.29;58.96
78313;BME280;67568;47.438;21.408;2023-03-01T07:44:04;101541.50;;;5.46;58.43
78313;BME280;67568;47.438;21.408;2023-03-01T07:46:33;101544.38;;;5.27;58.83
78313;BME280;67568;47.438;21.408;2023-03-01T07:49:00;101546.50;;;5.37;58.79
78313;BME280;67568;47.438;21.408;2023-03-01T07:51:27;101551.31;;;5.41;58.11
78313;BME280;67568;47.438;21.408;2023-03-01T07:53:56;101536.34;;;5.37;58.06
78313;BME280;67568;47.438;21.408;2023-03-01T07:56:23;101537.31;;;5.43;59.00
78313;BME280;67568;47.438;21.408;2023-03-01T07:58:50;101543.19;;;5.70;58.63
78313;BME280;67568;47.438;21.408;2023-03-01T08:01:18;101544.09;;;5.88;57.44
78313;BME280;67568;47.438;21.408;2023-03-01T08:03:45;101541.22;;;6.18;57.79
78313;BME280;67568;47.438;21.408;2023-03-01T08:06:14;101539.75;;;6.27;56.83
78313;BME280;67568;47.438;21.408;2023-03-01T08:08:42;101545.31;;;6.44;55.50
78313;BME280;67568;47.438;21.408;2023-03-01T08:11:13;101547.38;;;6.37;55.36
78313;BME280;67568;47.438;21.408;2023-03-01T08:13:41;101551.50;;;6.51;56.57
78313;BME280;67568;47.438;21.408;2023-03-01T08:16:13;101543.00;;;6.81;54.30
78313;BME280;67568;47.438;21.408;2023-03-01T08:18:41;101536.50;;;7.04;54.19
78313;BME280;67568;47.438;21.408;2023-03-01T08:21:10;101538.34;;;7.15;52.93
78313;BME280;67568;47.438;21.408;2023-03-01T08:23:39;101537.16;;;7.11;53.15
78313;BME280;67568;47.438;21.408;2023-03-01T08:26:09;101538.19;;;7.39;52.89
78313;BME280;67568;47.438;21.408;2023-03-01T08:28:36;101547.13;;;7.46;54.05
78313;BME280;67568;47.438;21.408;2023-03-01T08:31:19;101537.44;;;7.27;52.36
78313;BME280;67568;47.438;21.408;2023-03-01T08:33:47;101536.66;;;7.48;52.82
78313;BME280;67568;47.438;21.408;2023-03-01T08:36:15;101539.81;;;7.57;52.68
78313;BME280;67568;47.438;21.408;2023-03-01T08:38:41;101532.09;;;7.76;52.81
78313;BME280;67568;47.438;21.408;2023-03-01T08:41:08;101522.22;;;7.58;52.48
78313;BME280;67568;47.438;21.408;2023-03-01T08:43:35;101513.59;;;7.93;51.76
78313;BME280;67568;47.438;21.408;2023-03-01T08:46:02;101508.00;;;7.88;52.01
78313;BME280;67568;47.438;21.408;2023-03-01T08:48:28;101507.25;;;8.15;51.39
78313;BME280;67568;47.438;21.408;2023-03-01T08:50:55;101506.06;;;8.54;50.10
78313;BME280;67568;47.438;21.408;2023-03-01T08:53:22;101503.44;;;8.70;49.50
78313;BME280;67568;47.438;21.408;2023-03-01T08:55:49;101496.66;;;9.15;47.75
78313;BME280;67568;47.438;21.408;2023-03-01T08:58:16;101504.97;;;10.00;48.63
78313;BME280;67568;47.438;21.408;2023-03-01T09:00:43;101505.72;;;10.53;46.11
78313;BME280;67568;47.438;21.408;2023-03-01T09:03:11;101502.72;;;11.26;45.01
78313;BME280;67568;47.438;21.408;2023-03-01T09:05:38;101504.09;;;10.77;43.80
78313;BME280;67568;47.438;21.408;2023-03-01T09:08:04;101505.72;;;11.70;43.98
78313;BME280;67568;47.438;21.408;2023-03-01T09:10:38;101501.34;;;12.29;41.25
78313;BME280;67568;47.438;21.408;2023-03-01T09:13:04;101493.59;;;14.40;39.45
78313;BME280;67568;47.438;21.408;2023-03-01T09:15:31;101510.94;;;16.34;33.98
78313;BME280;67568;47.438;21.408;2023-03-01T09:17:58;101506.25;;;15.88;33.34
78313;BME280;67568;47.438;21.408;2023-03-01T09:20:24;101501.25;;;14.73;35.58
78313;BME280;67568;47.438;21.408;2023-03-01T09:22:51;101499.22;;;16.04;34.94
78313;BME280;67568;47.438;21.408;2023-03-01T09:25:18;101502.41;;;16.89;33.27
78313;BME280;67568;47.438;21.408;2023-03-01T09:27:45;101498.41;;;16.81;32.22
78313;BME280;67568;47.438;21.408;2023-03-01T09:30:13;101494.78;;;17.03;32.39
78313;BME280;67568;47.438;21.408;2023-03-01T09:32:40;101491.78;;;16.63;32.99
78313;BME280;67568;47.438;21.408;2023-03-01T09:35:07;101486.03;;;18.30;31.64
78313;BME280;67568;47.438;21.408;2023-03-01T09:37:35;101490.47;;;16.97;30.87
78313;BME280;67568;47.438;21.408;2023-03-01T09:40:06;101487.91;;;16.87;31.97
78313;BME280;67568;47.438;21.408;2023-03-01T09:42:34;101476.00;;;17.80;30.20
78313;BME280;67568;47.438;21.408;2023-03-01T09:45:11;101476.16;;;17.84;30.96
78313;BME280;67568;47.438;21.408;2023-03-01T09:47:38;101472.13;;;15.77;33.79
78313;BME280;67568;47.438;21.408;2023-03-01T09:50:13;101483.56;;;18.28;29.68
78313;BME280;67568;47.438;21.408;2023-03-01T10:04:28;101458.66;;;14.67;34.43
78313;BME280;67568;47.438;21.408;2023-03-01T10:09:48;101458.19;;;17.22;31.21
78313;BME280;67568;47.438;21.408;2023-03-01T10:14:53;101465.06;;;16.57;31.41
78313;BME280;67568;47.438;21.408;2023-03-01T10:20:18;101454.66;;;17.08;30.81
78313;BME280;67568;47.438;21.408;2023-03-01T10:22:45;101451.78;;;16.27;31.94
78313;BME280;67568;47.438;21.408;2023-03-01T10:25:15;101445.00;;;17.23;31.29
78313;BME280;67568;47.438;21.408;2023-03-01T10:28:01;101446.81;;;20.02;29.37
78313;BME280;67568;47.438;21.408;2023-03-01T10:30:35;101441.34;;;19.67;27.04
78313;BME280;67568;47.438;21.408;2023-03-01T10:33:03;101448.59;;;20.57;25.17
78313;BME280;67568;47.438;21.408;2023-03-01T10:35:33;101448.09;;;21.30;25.09
78313;BME280;67568;47.438;21.408;2023-03-01T10:38:06;101448.31;;;20.50;26.10
78313;BME280;67568;47.438;21.408;2023-03-01T10:40:35;101432.78;;;17.90;29.60
78313;BME280;67568;47.438;21.408;2023-03-01T10:43:05;101429.09;;;18.29;28.58
78313;BME280;67568;47.438;21.408;2023-03-01T10:45:33;101432.44;;;16.89;31.81
78313;BME280;67568;47.438;21.408;2023-03-01T10:50:44;101425.09;;;17.64;31.35
78313;BME280;67568;47.438;21.408;2023-03-01T10:53:37;101422.53;;;19.89;27.66
78313;BME280;67568;47.438;21.408;2023-03-01T10:56:08;101404.03;;;18.41;29.15
78313;BME280;67568;47.438;21.408;2023-03-01T10:58:38;101410.38;;;17.50;30.84
78313;BME280;67568;47.438;21.408;2023-03-01T11:06:41;101401.59;;;20.07;27.36
78313;BME280;67568;47.438;21.408;2023-03-01T11:09:22;101388.22;;;20.25;27.15
78313;BME280;67568;47.438;21.408;2023-03-01T11:11:55;101388.09;;;19.15;28.02
78313;BME280;67568;47.438;21.408;2023-03-01T11:14:24;101388.84;;;18.77;29.15
78313;BME280;67568;47.438;21.408;2023-03-01T11:17:12;101384.84;;;21.52;26.33
78313;BME280;67568;47.438;21.408;2023-03-01T11:19:41;101377.91;;;22.80;24.57
78313;BME280;67568;47.438;21.408;2023-03-01T11:22:21;101363.84;;;20.08;27.36
78313;BME280;67568;47.438;21.408;2023-03-01T11:24:54;101366.50;;;21.46;26.52
78313;BME280;67568;47.438;21.408;2023-03-01T11:27:43;101360.84;;;20.88;26.15
78313;BME280;67568;47.438;21.408;2023-03-01T11:30:27;101362.09;;;24.57;22.04
78313;BME280;67568;47.438;21.408;2023-03-01T11:35:44;101360.25;;;24.45;22.14
78313;BME280;67568;47.438;21.408;2023-03-01T11:50:16;101320.66;;;17.41;31.20
78313;BME280;67568;47.438;21.408;2023-03-01T12:01:09;101297.44;;;14.31;37.91
78313;BME280;67568;47.438;21.408;2023-03-01T12:09:31;101283.19;;;13.81;38.56
78313;BME280;67568;47.438;21.408;2023-03-01T12:12:18;101279.53;;;14.00;38.10
78313;BME280;67568;47.438;21.408;2023-03-01T12:15:18;101270.88;;;13.20;40.10
78313;BME280;67568;47.438;21.408;2023-03-01T12:17:56;101266.88;;;13.08;40.94
78313;BME280;67568;47.438;21.408;2023-03-01T12:20:30;101254.53;;;13.14;39.13
78313;BME280;67568;47.438;21.408;2023-03-01T12:26:10;101252.88;;;12.65;40.92
78313;BME280;67568;47.438;21.408;2023-03-01T12:43:26;101242.28;;;12.08;42.49
78313;BME280;67568;47.438;21.408;2023-03-01T12:51:34;101238.44;;;12.04;42.13
78313;BME280;67568;47.438;21.408;2023-03-01T12:54:11;101228.19;;;12.29;43.17
78313;BME280;67568;47.438;21.408;2023-03-01T12:56:41;101233.03;;;12.47;43.08
78313;BME280;67568;47.438;21.408;2023-03-01T12:59:29;101237.75;;;12.18;42.10
78313;BME280;67568;47.438;21.408;2023-03-01T13:11:02;101225.34;;;11.65;44.40
78313;BME280;67568;47.438;21.408;2023-03-01T13:13:33;101220.97;;;11.59;43.72
78313;BME280;67568;47.438;21.408;2023-03-01T13:16:39;101218.22;;;11.54;43.75
78313;BME280;67568;47.438;21.408;2023-03-01T13:21:47;101213.56;;;11.44;43.16
78313;BME280;67568;47.438;21.408;2023-03-01T13:24:39;101218.81;;;11.46;43.98
78313;BME280;67568;47.438;21.408;2023-03-01T13:29:48;101210.13;;;11.58;44.29
78313;BME280;67568;47.438;21.408;2023-03-01T13:37:41;101212.03;;;11.67;44.27
78313;BME280;67568;47.438;21.408;2023-03-01T13:42:51;101215.25;;;11.80;44.38
78313;BME280;67568;47.438;21.408;2023-03-01T13:48:11;101221.72;;;11.70;43.63
78313;BME280;67568;47.438;21.408;2023-03-01T13:51:03;101217.13;;;11.50;43.77
78313;BME280;67568;47.438;21.408;2023-03-01T13:53:34;101217.72;;;11.42;44.20
78313;BME280;67568;47.438;21.408;2023-03-01T13:56:13;101215.53;;;11.39;43.97
78313;BME280;67568;47.438;21.408;2023-03-01T14:01:28;101207.72;;;11.41;44.65
78313;BME280;67568;47.438;21.408;2023-03-01T14:03:56;101215.53;;;11.39;44.62
78313;BME280;67568;47.438;21.408;2023-03-01T14:06:29;101204.09;;;11.51;43.66
78313;BME280;67568;47.438;21.408;2023-03-01T14:09:16;101202.16;;;11.46;44.10
78313;BME280;67568;47.438;21.408;2023-03-01T14:20:33;101188.63;;;11.39;44.67
78313;BME280;67568;47.438;21.408;2023-03-01T14:23:11;101192.81;;;11.32;44.80
78313;BME280;67568;47.438;21.408;2023-03-01T14:25:55;101190.06;;;11.26;44.57
78313;BME280;67568;47.438;21.408;2023-03-01T14:28:26;101187.84;;;11.23;45.18
78313;BME280;67568;47.438;21.408;2023-03-01T14:31:01;101178.44;;;11.24;44.60
78313;BME280;67568;47.438;21.408;2023-03-01T14:33:29;101171.56;;;11.12;45.06
78313;BME280;67568;47.438;21.408;2023-03-01T14:36:00;101173.78;;;11.10;44.99
78313;BME280;67568;47.438;21.408;2023-03-01T14:38:32;101179.34;;;11.10;44.60
78313;BME280;67568;47.438;21.408;2023-03-01T14:41:02;101177.41;;;11.10;44.79
78313;BME280;67568;47.438;21.408;2023-03-01T14:43:35;101160.47;;;11.12;44.50
78313;BME280;67568;47.438;21.408;2023-03-01T14:46:03;101158.81;;;11.11;44.24
78313;BME280;67568;47.438;21.408;2023-03-01T14:48:31;101166.91;;;11.02;44.71
78313;BME280;67568;47.438;21.408;2023-03-01T14:50:58;101160.81;;;11.00;44.90
78313;BME280;67568;47.438;21.408;2023-03-01T14:53:27;101164.44;;;10.95;44.40
78313;BME280;67568;47.438;21.408;2023-03-01T14:55:59;101170.03;;;10.90;44.43
78313;BME280;67568;47.438;21.408;2023-03-01T14:58:26;101163.13;;;10.83;44.47
78313;BME280;67568;47.438;21.408;2023-03-01T15:00:58;101158.41;;;10.78;44.69
78313;BME280;67568;47.438;21.408;2023-03-01T15:03:31;101157.94;;;10.61;43.25
78313;BME280;67568;47.438;21.408;2023-03-01T15:06:04;101154.88;;;10.62;43.68
78313;BME280;67568;47.438;21.408;2023-03-01T15:08:33;101159.88;;;10.60;43.64
78313;BME280;67568;47.438;21.408;2023-03-01T15:11:04;101143.00;;;10.56;43.51
78313;BME280;67568;47.438;21.408;2023-03-01T15:13:35;101131.66;;;10.48;43.62
78313;BME280;67568;47.438;21.408;2023-03-01T15:16:12;101133.31;;;10.44;42.91